Time;durP1;ratioP1;P1;durP2;ratioP2;P2;SDS_P1;SDS_P2;PMS_P1;PMS_P2;Temp;Humidity;BMP_temperature;BMP_pressure;BME280_temperature;BME280_humidity;BME280_pressure;Samples;Min_cycle;Max_cycle;Signal;HPM_P1;HPM_P2
2023/06/28 00:01:17;;;;;;;11.33;3.03;;;19.70;74.30;;;22.47;50.63;101653.63;5053402;28;20281;-59
2023/06/28 00:03:44;;;;;;;6.37;2.50;;;19.70;74.80;;;22.44;50.38;101655.97;5055863;28;20639;-59
2023/06/28 00:06:11;;;;;;;6.43;2.97;;;19.60;74.90;;;22.42;50.54;101664.22;5057493;28;20273;-60
2023/06/28 00:08:40;;;;;;;9.63;2.63;;;19.60;75.00;;;22.41;50.79;101654.56;5057404;28;20667;-60
2023/06/28 00:11:08;;;;;;;5.20;2.00;;;19.60;74.90;;;22.41;51.07;101656.44;5057265;28;20201;-59
2023/06/28 00:13:35;;;;;;;5.60;2.50;;;19.60;75.30;;;22.40;50.82;101663.66;5050284;28;20218;-60
2023/06/28 00:16:04;;;;;;;6.73;2.43;;;19.60;75.30;;;22.37;50.77;101658.72;5055349;28;20676;-60
2023/06/28 00:18:32;;;;;;;5.93;2.40;;;19.60;75.30;;;22.37;50.78;101658.72;5057182;28;20205;-61
2023/06/28 00:21:01;;;;;;;5.63;2.43;;;19.60;75.50;;;22.35;50.86;101660.84;5057507;28;20205;-59
2023/06/28 00:23:28;;;;;;;4.70;2.30;;;19.50;75.40;;;22.34;51.18;101647.66;5056858;28;20265;-60
2023/06/28 00:25:55;;;;;;;6.80;2.30;;;19.60;75.80;;;22.35;51.19;101665.38;5057340;28;20206;-58
2023/06/28 00:28:22;;;;;;;5.10;2.90;;;19.50;75.70;;;22.33;51.08;101659.44;5057240;28;20592;-60
2023/06/28 00:30:49;;;;;;;5.90;2.80;;;19.50;75.70;;;22.30;51.11;101659.91;5056493;28;20562;-60
2023/06/28 00:33:20;;;;;;;6.10;2.97;;;19.50;75.80;;;22.28;51.30;101657.44;5056717;28;20598;-60
2023/06/28 00:35:48;;;;;;;7.43;2.67;;;19.50;75.90;;;22.26;51.38;101667.56;5057296;28;20590;-59
2023/06/28 00:38:16;;;;;;;4.37;2.40;;;19.50;76.00;;;22.24;51.07;101669.69;5057654;28;20194;-60
2023/06/28 00:40:43;;;;;;;9.90;3.47;;;19.40;76.00;;;22.20;51.61;101668.50;5057270;28;20613;-61
2023/06/28 00:43:11;;;;;;;5.27;2.53;;;19.40;76.10;;;22.20;51.32;101668.50;5056010;28;20210;-61
2023/06/28 00:45:38;;;;;;;6.13;2.50;;;19.40;76.20;;;22.19;51.56;101669.53;5054166;28;20248;-60
2023/06/28 00:48:06;;;;;;;4.63;2.87;;;19.40;76.20;;;22.19;51.64;101664.16;5037114;28;20270;-60
2023/06/28 00:50:36;;;;;;;5.73;2.90;;;19.40;76.50;;;22.19;51.65;101666.84;5035813;28;20198;-60
2023/06/28 00:53:04;;;;;;;6.10;2.80;;;19.40;76.60;;;22.17;51.64;101677.81;5036470;28;20179;-60
2023/06/28 00:55:31;;;;;;;7.50;3.00;;;19.40;76.70;;;22.15;51.63;101671.06;5036848;28;20218;-60
2023/06/28 00:57:59;;;;;;;5.13;2.57;;;19.30;76.70;;;22.11;51.72;101669.84;5046422;28;20246;-59
2023/06/28 01:00:26;;;;;;;4.03;2.53;;;19.30;76.90;;;22.08;51.95;101678.38;5056862;28;20197;-60
2023/06/28 01:02:53;;;;;;;10.63;3.27;;;19.30;77.20;;;22.07;51.83;101672.19;5051761;28;20247;-60
2023/06/28 01:05:22;;;;;;;5.53;2.73;;;19.30;77.40;;;22.08;52.26;101673.00;5048630;28;20210;-60
2023/06/28 01:07:51;;;;;;;6.73;2.93;;;19.30;77.20;;;22.06;52.13;101683.16;5036542;28;20198;-60
2023/06/28 01:10:19;;;;;;;6.03;2.90;;;19.30;77.40;;;22.04;52.45;101677.16;5045277;28;20194;-60
2023/06/28 01:12:47;;;;;;;6.33;3.10;;;19.20;77.40;;;22.05;52.31;101681.50;5056547;28;20218;-59
2023/06/28 01:15:16;;;;;;;4.60;3.13;;;19.20;77.50;;;22.03;52.23;101672.88;5055062;28;20297;-60
2023/06/28 01:17:43;;;;;;;11.73;3.83;;;19.30;77.60;;;22.04;52.40;101679.84;5056462;28;20229;-60
2023/06/28 01:20:10;;;;;;;6.77;2.90;;;19.20;77.50;;;22.04;52.09;101675.31;5041988;28;20198;-59
2023/06/28 01:22:43;;;;;;;4.67;3.03;;;19.20;77.50;;;22.03;52.20;101675.53;5036167;28;20618;-60
2023/06/28 01:25:12;;;;;;;7.63;3.43;;;19.20;77.60;;;21.98;52.34;101676.22;5035869;28;20237;-60
2023/06/28 01:27:44;;;;;;;8.30;3.17;;;19.20;77.70;;;21.99;52.51;101677.84;5036228;28;20237;-59
2023/06/28 01:30:14;;;;;;;6.47;3.53;;;19.20;77.80;;;21.98;52.87;101680.75;5036015;28;20252;-60
2023/06/28 01:32:43;;;;;;;7.20;2.90;;;19.20;77.90;;;21.97;53.01;101679.13;5035142;28;20195;-60
2023/06/28 01:35:14;;;;;;;9.10;3.67;;;19.20;78.30;;;21.97;52.42;101684.47;5036598;28;20241;-60
2023/06/28 01:37:43;;;;;;;4.70;2.87;;;19.10;78.10;;;21.94;52.78;101679.59;5035799;28;20555;-59
2023/06/28 01:40:13;;;;;;;6.00;3.27;;;19.10;78.30;;;21.93;52.73;101683.31;5038006;28;20214;-58
2023/06/28 01:42:42;;;;;;;7.47;3.60;;;19.10;78.20;;;21.90;52.85;101673.03;5055472;28;20209;-59
2023/06/28 01:45:10;;;;;;;6.97;3.10;;;19.10;78.20;;;21.89;52.84;101682.13;5055471;28;20202;-59
2023/06/28 01:47:38;;;;;;;8.93;3.27;;;19.10;78.30;;;21.90;52.71;101689.09;5055859;28;20214;-59
2023/06/28 01:50:07;;;;;;;6.03;3.17;;;19.10;78.40;;;21.88;52.72;101688.53;5055571;28;20198;-58
2023/06/28 01:52:34;;;;;;;7.70;3.33;;;19.00;78.20;;;21.87;52.76;101692.25;5040835;28;20225;-59
2023/06/28 01:55:02;;;;;;;6.70;3.70;;;19.00;78.40;;;21.86;52.79;101687.94;5035013;28;20227;-59
2023/06/28 01:57:30;;;;;;;9.50;3.27;;;19.00;78.40;;;21.88;53.12;101696.56;5035506;28;20612;-58
2023/06/28 01:59:57;;;;;;;6.00;3.10;;;19.10;78.40;;;21.86;52.96;101693.28;5035434;28;20277;-59
2023/06/28 02:02:24;;;;;;;12.53;3.60;;;19.00;78.40;;;21.83;52.82;101693.69;5049784;28;20233;-60
2023/06/28 02:04:51;;;;;;;5.93;3.73;;;19.00;78.50;;;21.80;52.76;101683.44;5054679;28;20697;-60
2023/06/28 02:07:18;;;;;;;7.60;3.23;;;18.90;78.40;;;21.75;52.63;101685.97;5055013;28;20225;-59
2023/06/28 02:09:45;;;;;;;7.87;3.77;;;18.90;78.60;;;21.71;53.26;101695.50;5055043;28;20224;-59
2023/06/28 02:12:12;;;;;;;7.30;3.53;;;18.90;78.90;;;21.72;53.21;101684.56;5055332;28;20285;-59
2023/06/28 02:14:40;;;;;;;9.90;4.20;;;18.90;78.90;;;21.73;52.99;101682.72;5048124;28;20297;-59
2023/06/28 02:17:13;;;;;;;8.23;3.20;;;18.90;78.90;;;21.71;53.21;101680.25;5035858;28;20226;-60
2023/06/28 02:19:41;;;;;;;10.07;3.63;;;18.90;78.80;;;21.70;53.53;101688.50;5035333;28;20266;-61
2023/06/28 02:22:08;;;;;;;7.60;3.40;;;18.80;79.00;;;21.71;53.22;101688.28;5035317;28;20190;-60
2023/06/28 02:24:35;;;;;;;13.57;4.43;;;18.90;79.00;;;21.72;53.25;101683.75;5042072;28;20689;-60
2023/06/28 02:27:04;;;;;;;7.53;3.17;;;18.90;78.90;;;21.73;52.69;101688.06;5053500;28;20276;-59
2023/06/28 02:29:31;;;;;;;6.00;3.67;;;18.80;78.90;;;21.73;52.80;101682.72;5054825;28;20190;-60
2023/06/28 02:31:59;;;;;;;7.97;4.07;;;18.80;78.60;;;21.72;52.81;101683.75;5054921;28;20598;-60
2023/06/28 02:34:27;;;;;;;7.50;4.27;;;18.80;78.60;;;21.67;53.47;101686.28;5053868;28;20217;-60
2023/06/28 02:36:55;;;;;;;8.87;3.57;;;18.80;78.80;;;21.65;52.91;101681.16;5054715;28;20218;-60
2023/06/28 02:39:22;;;;;;;7.20;3.60;;;18.80;78.90;;;21.63;53.23;101680.56;5040214;28;20699;-60
2023/06/28 02:41:50;;;;;;;6.23;3.93;;;18.80;79.00;;;21.62;53.05;101680.75;5050498;28;20221;-60
2023/06/28 02:44:17;;;;;;;6.23;3.70;;;18.80;78.90;;;21.62;53.16;101680.75;5054151;28;20293;-59
2023/06/28 02:46:44;;;;;;;6.63;4.00;;;18.80;79.10;;;21.63;53.33;101675.19;5054437;28;20233;-60
2023/06/28 02:49:12;;;;;;;11.37;4.20;;;18.80;78.90;;;21.64;53.39;101673.31;5054631;28;20604;-59
2023/06/28 02:51:39;;;;;;;7.90;3.73;;;18.80;78.80;;;21.61;52.70;101673.78;5053253;28;20186;-60
2023/06/28 02:54:06;;;;;;;5.80;3.50;;;18.80;78.80;;;21.59;53.11;101672.13;5034103;28;20242;-59
2023/06/28 02:56:34;;;;;;;9.57;4.60;;;18.80;79.00;;;21.63;53.02;101674.38;5034321;28;20254;-59
2023/06/28 02:59:01;;;;;;;7.57;4.70;;;18.80;78.90;;;21.63;53.11;101674.38;5035254;28;20237;-60
2023/06/28 03:01:28;;;;;;;8.17;4.87;;;18.80;78.60;;;21.62;52.81;101675.41;5034074;28;20218;-60
2023/06/28 03:03:55;;;;;;;7.33;4.40;;;18.80;78.70;;;21.59;53.23;101676.66;5045111;28;20194;-61
2023/06/28 03:06:23;;;;;;;9.97;4.10;;;18.70;78.70;;;21.56;53.25;101675.25;5053284;28;20217;-61
2023/06/28 03:08:51;;;;;;;9.77;4.40;;;18.70;78.80;;;21.56;52.89;101677.13;5053934;28;20948;-60
2023/06/28 03:11:18;;;;;;;9.13;4.10;;;18.70;78.90;;;21.53;53.34;101667.69;5053788;28;20200;-60
2023/06/28 03:13:44;;;;;;;6.63;4.00;;;18.70;78.80;;;21.53;53.11;101666.84;5053504;28;20216;-60
2023/06/28 03:16:11;;;;;;;7.57;3.80;;;18.70;79.10;;;21.52;53.09;101676.75;5053477;28;20249;-61
2023/06/28 03:18:38;;;;;;;8.20;3.73;;;18.70;79.20;;;21.50;53.19;101673.47;5053493;28;20273;-61
2023/06/28 03:21:05;;;;;;;7.53;3.57;;;18.70;79.30;;;21.52;52.91;101676.75;5039845;28;20226;-61
2023/06/28 03:23:33;;;;;;;10.37;4.20;;;18.70;79.20;;;21.54;53.37;101680.03;5033559;28;20191;-61
2023/06/28 03:26:01;;;;;;;11.67;5.13;;;18.70;79.10;;;21.56;53.27;101674.47;5034561;28;20297;-60
2023/06/28 03:28:27;;;;;;;5.33;4.23;;;18.70;79.20;;;21.55;53.39;101675.50;5054094;28;20220;-59
2023/06/28 03:30:54;;;;;;;7.13;4.27;;;18.70;79.20;;;21.55;52.95;101668.28;5053949;28;20251;-60
2023/06/28 03:33:21;;;;;;;7.53;4.40;;;18.70;79.30;;;21.56;53.06;101672.56;5052580;28;20584;-61
2023/06/28 03:35:48;;;;;;;6.83;3.63;;;18.60;79.10;;;21.53;53.28;101669.53;5053158;28;20686;-62
2023/06/28 03:38:16;;;;;;;6.67;4.10;;;18.60;79.20;;;21.52;53.03;101671.41;5053172;28;20189;-61
2023/06/28 03:40:44;;;;;;;7.60;4.33;;;18.60;79.30;;;21.53;53.18;101665.00;5053371;28;20704;-61
2023/06/28 03:43:11;;;;;;;5.80;3.80;;;18.60;79.30;;;21.56;53.19;101669.09;5053077;28;20271;-60
2023/06/28 03:45:38;;;;;;;7.13;3.60;;;18.70;79.20;;;21.56;52.96;101671.78;5053240;28;20674;-61
2023/06/28 03:48:05;;;;;;;10.00;4.40;;;18.70;79.20;;;21.57;53.48;101671.53;5052657;28;20190;-61
2023/06/28 03:50:32;;;;;;;9.47;4.10;;;18.70;79.20;;;21.54;53.22;101671.16;5053319;28;20281;-61
2023/06/28 03:52:59;;;;;;;7.00;4.70;;;18.60;79.10;;;21.51;53.16;101675.09;5052468;28;20201;-59
2023/06/28 03:55:26;;;;;;;11.47;4.57;;;18.60;79.10;;;21.45;53.34;101681.38;5053039;28;20253;-62
2023/06/28 03:57:54;;;;;;;9.03;4.73;;;18.60;79.20;;;21.41;53.04;101679.34;5053067;28;20202;-61
2023/06/28 04:00:22;;;;;;;7.67;4.80;;;18.60;79.30;;;21.38;53.61;101672.59;5053158;28;20221;-60
2023/06/28 04:02:48;;;;;;;4.87;4.33;;;18.50;79.30;;;21.36;52.92;101666.63;5052124;28;20232;-61
2023/06/28 04:05:16;;;;;;;7.47;4.20;;;18.50;79.30;;;21.35;53.19;101673.03;5052023;28;20700;-61
2023/06/28 04:07:43;;;;;;;7.47;4.80;;;18.50;79.40;;;21.34;53.07;101673.25;5053258;28;20190;-61
2023/06/28 04:10:10;;;;;;;10.90;4.30;;;18.50;79.50;;;21.32;53.67;101676.13;5053118;28;20240;-60
2023/06/28 04:12:37;;;;;;;10.63;5.23;;;18.50;79.60;;;21.33;53.81;101675.09;5053166;28;20611;-61
2023/06/28 04:15:08;;;;;;;11.17;4.13;;;18.50;79.80;;;21.36;53.57;101665.81;5052415;28;20321;-61
2023/06/28 04:17:35;;;;;;;9.63;4.67;;;18.50;80.00;;;21.38;53.71;101675.25;5044909;28;20256;-61
2023/06/28 04:20:06;;;;;;;9.77;5.00;;;18.50;79.70;;;21.40;52.96;101675.84;5033513;28;20198;-60
2023/06/28 04:22:34;;;;;;;8.57;4.87;;;18.50;79.60;;;21.40;53.52;101667.81;5032981;28;20672;-60
2023/06/28 04:25:02;;;;;;;10.00;4.60;;;18.50;79.70;;;21.42;53.53;101664.91;5036476;28;20812;-61
2023/06/28 04:27:29;;;;;;;7.53;4.07;;;18.50;80.40;;;21.45;53.78;101670.66;5040100;28;20198;-61
2023/06/28 04:29:56;;;;;;;8.03;4.53;;;18.50;79.80;;;21.51;53.13;101671.63;5033282;28;20730;-61
2023/06/28 04:32:26;;;;;;;7.83;5.63;;;18.50;79.40;;;21.54;53.15;101674.66;5032240;28;20282;-61
2023/06/28 04:34:53;;;;;;;10.57;5.47;;;18.60;79.30;;;21.58;52.95;101675.84;5031744;28;20276;-61
2023/06/28 04:37:21;;;;;;;9.97;5.20;;;18.60;79.20;;;21.57;52.98;101658.16;5033196;28;20210;-59
2023/06/28 04:39:48;;;;;;;8.53;4.67;;;18.60;79.10;;;21.57;52.86;101668.88;5033229;28;20675;-58
2023/06/28 04:42:15;;;;;;;10.43;4.70;;;18.60;79.20;;;21.59;53.17;101665.94;5052143;28;20562;-61
2023/06/28 04:44:44;;;;;;;10.83;4.70;;;18.70;79.20;;;21.62;52.53;101664.69;5051850;28;20209;-61
2023/06/28 04:47:15;;;;;;;12.20;5.03;;;18.70;79.00;;;21.61;52.52;101673.78;5052909;28;20194;-59
2023/06/28 04:49:47;;;;;;;8.27;4.40;;;18.70;79.00;;;21.63;52.84;101666.34;5053740;28;20192;-60
2023/06/28 04:52:14;;;;;;;8.27;5.10;;;18.70;78.90;;;21.66;52.87;101660.50;5056409;28;20272;-60
2023/06/28 04:54:41;;;;;;;9.00;4.97;;;18.70;78.90;;;21.66;52.36;101665.88;5056019;28;20306;-61
2023/06/28 04:57:08;;;;;;;8.37;5.30;;;18.70;79.00;;;21.68;52.79;101669.16;5055624;28;20614;-60
2023/06/28 04:59:36;;;;;;;13.60;4.87;;;18.70;79.10;;;21.69;52.66;101668.94;5056243;28;20281;-61
2023/06/28 05:02:05;;;;;;;6.97;4.17;;;18.70;79.30;;;21.77;53.09;101678.53;5056176;28;20542;-61
2023/06/28 05:04:32;;;;;;;5.73;3.30;;;18.80;79.40;;;21.84;52.40;101673.91;5055452;28;20190;-60
2023/06/28 05:07:05;;;;;;;7.17;4.57;;;18.80;79.30;;;21.91;52.23;101674.66;5055617;28;20603;-60
2023/06/28 05:09:35;;;;;;;7.43;4.43;;;18.90;79.10;;;21.93;52.20;101677.94;5055852;28;20211;-60
2023/06/28 05:12:04;;;;;;;8.00;4.63;;;19.00;78.80;;;21.96;52.42;101672.97;5045475;28;20204;-62
2023/06/28 05:14:31;;;;;;;8.20;5.23;;;19.00;79.00;;;22.06;52.56;101677.78;5041069;28;20655;-60
2023/06/28 05:16:58;;;;;;;10.20;5.10;;;19.10;78.90;;;22.13;52.00;101675.81;5055568;28;20598;-60
2023/06/28 05:19:25;;;;;;;9.73;4.30;;;19.10;78.70;;;22.18;52.20;101670.56;5055783;28;20213;-60
2023/06/28 05:21:53;;;;;;;10.17;3.97;;;19.20;78.60;;;22.23;52.19;101676.06;5055330;28;20273;-61
2023/06/28 05:24:22;;;;;;;8.67;3.97;;;19.30;78.60;;;22.31;52.28;101670.41;5055158;28;20247;-60
2023/06/28 05:26:49;;;;;;;7.60;5.00;;;19.30;78.50;;;22.37;51.87;101663.31;5054216;28;20217;-58
2023/06/28 05:29:16;;;;;;;8.30;4.47;;;19.40;78.30;;;22.35;51.97;101660.84;5055186;28;20220;-60
2023/06/28 05:31:43;;;;;;;7.93;4.30;;;19.40;78.30;;;22.37;52.03;101663.31;5055226;28;20206;-61
2023/06/28 05:34:11;;;;;;;7.67;4.63;;;19.40;78.40;;;22.41;51.97;101665.31;5047361;28;20266;-60
2023/06/28 05:36:39;;;;;;;9.63;5.17;;;19.40;78.20;;;22.41;51.75;101675.22;5034047;28;20275;-59
2023/06/28 05:39:06;;;;;;;6.47;4.30;;;19.50;78.20;;;22.40;51.98;101674.38;5039005;28;20214;-60
2023/06/28 05:41:37;;;;;;;7.40;4.17;;;19.50;78.20;;;22.41;51.98;101667.97;5056128;28;20658;-59
2023/06/28 05:44:04;;;;;;;9.27;4.63;;;19.50;78.30;;;22.40;51.59;101660.97;5055027;28;20663;-61
2023/06/28 05:46:32;;;;;;;7.13;4.17;;;19.50;78.20;;;22.43;52.19;101663.19;5055211;28;20256;-61
2023/06/28 05:49:00;;;;;;;10.57;4.90;;;19.50;78.30;;;22.44;52.04;101667.50;5055070;28;20214;-62
2023/06/28 05:51:28;;;;;;;8.80;4.73;;;19.50;78.40;;;22.46;52.12;101662.75;5054845;28;20651;-63
2023/06/28 05:53:55;;;;;;;10.33;4.63;;;19.50;78.20;;;22.48;52.09;101666.00;5043278;28;20306;-62
2023/06/28 05:56:22;;;;;;;8.33;4.20;;;19.60;78.20;;;22.51;51.88;101665.53;5034784;28;20258;-61
2023/06/28 05:58:50;;;;;;;6.83;4.07;;;19.60;78.30;;;22.57;51.86;101675.38;5051609;28;20201;-62
2023/06/28 06:01:17;;;;;;;8.43;3.80;;;19.60;78.50;;;22.63;51.81;101669.09;5054672;28;20527;-60
2023/06/28 06:03:44;;;;;;;9.27;4.53;;;19.70;78.50;;;22.73;52.03;101666.66;5054530;28;20193;-60
2023/06/28 06:06:11;;;;;;;8.97;4.07;;;19.70;78.40;;;22.84;51.58;101659.69;5054774;28;20206;-61
2023/06/28 06:08:38;;;;;;;7.40;4.20;;;19.80;78.30;;;22.97;51.40;101653.25;5053132;28;20653;-60
2023/06/28 06:11:05;;;;;;;7.67;4.43;;;19.90;78.20;;;23.07;51.23;101653.47;5054579;28;20221;-62
2023/06/28 06:13:32;;;;;;;10.37;4.67;;;19.90;77.90;;;23.14;50.99;101654.19;5053437;28;20202;-61
2023/06/28 06:16:00;;;;;;;8.13;3.83;;;20.00;77.90;;;23.26;50.91;101657.69;5054051;28;20297;-61
2023/06/28 06:18:28;;;;;;;8.77;4.17;;;20.10;77.70;;;23.37;50.51;101659.56;5054918;28;20661;-61
2023/06/28 06:20:55;;;;;;;7.97;4.37;;;20.20;77.20;;;23.40;50.38;101651.84;5050424;28;20282;-61
2023/06/28 06:23:22;;;;;;;10.00;5.20;;;20.30;76.70;;;23.44;50.12;101650.31;5033845;28;20274;-60
2023/06/28 06:25:49;;;;;;;7.30;4.07;;;20.40;76.60;;;23.52;50.17;101657.19;5034172;28;20302;-62
2023/06/28 06:28:16;;;;;;;9.77;4.23;;;20.40;76.40;;;23.61;50.04;101660.31;5053666;28;20226;-61
2023/06/28 06:30:43;;;;;;;7.33;4.00;;;20.50;76.40;;;23.69;49.56;101663.47;5044285;28;20250;-61
2023/06/28 06:33:12;;;;;;;6.90;3.80;;;20.60;76.30;;;23.79;49.65;101662.84;5033784;28;20202;-60
2023/06/28 06:35:39;;;;;;;8.27;3.70;;;20.70;76.30;;;23.87;49.13;101660.59;5043703;28;20213;-60
2023/06/28 06:38:06;;;;;;;11.60;5.67;;;20.70;75.60;;;23.94;49.29;101663.97;5054010;28;20272;-58
2023/06/28 06:40:33;;;;;;;6.23;3.50;;;20.80;75.20;;;24.04;48.75;101666.03;5053866;28;20217;-58
2023/06/28 06:43:00;;;;;;;6.30;3.03;;;20.90;75.20;;;24.17;49.02;101661.22;5044674;28;20617;-60
2023/06/28 06:45:27;;;;;;;5.10;2.53;;;20.90;75.00;;;24.32;47.92;101659.84;5033356;28;20244;-60
2023/06/28 06:47:54;;;;;;;11.77;3.27;;;21.10;74.10;;;24.41;47.39;101661.09;5034167;28;20675;-61
2023/06/28 06:50:23;;;;;;;5.50;2.50;;;21.20;73.10;;;24.46;47.07;101667.34;5034183;28;20217;-60
2023/06/28 06:52:50;;;;;;;5.03;2.90;;;21.20;72.40;;;24.45;46.71;101668.44;5033203;28;20277;-61
2023/06/28 06:55:17;;;;;;;9.63;3.13;;;21.30;72.10;;;24.43;46.75;101675.13;5033309;28;20242;-60
2023/06/28 06:57:44;;;;;;;7.80;2.83;;;21.30;71.60;;;24.43;46.74;101675.13;5045573;28;20639;-61
2023/06/28 07:00:16;;;;;;;8.80;3.30;;;21.40;71.40;;;24.47;46.42;101682.47;5053131;28;20221;-61
2023/06/28 07:02:43;;;;;;;5.37;2.57;;;21.40;70.80;;;24.55;46.25;101678.56;5051922;28;20228;-60
2023/06/28 07:05:10;;;;;;;6.40;2.53;;;21.40;70.60;;;24.59;46.03;101682.38;5052997;28;20599;-60
2023/06/28 07:07:38;;;;;;;6.87;3.03;;;21.50;70.10;;;24.57;45.73;101679.94;5053768;28;20197;-59
2023/06/28 07:10:08;;;;;;;3.93;2.83;;;21.50;70.10;;;24.60;45.38;101684.84;5053640;28;20311;-59
2023/06/28 07:12:38;;;;;;;5.00;2.67;;;21.50;69.80;;;24.62;45.75;101687.28;5041797;28;20221;-62
2023/06/28 07:15:07;;;;;;;10.00;2.93;;;21.50;69.30;;;24.68;44.81;101683.59;5043664;28;20632;-62
2023/06/28 07:17:34;;;;;;;7.83;2.27;;;21.60;68.30;;;24.64;43.85;101682.47;5040686;28;20232;-63
2023/06/28 07:20:01;;;;;;;8.03;2.77;;;21.60;65.90;;;24.62;43.29;101679.22;5052134;28;20190;-60
2023/06/28 07:22:28;;;;;;;4.80;2.20;;;21.60;66.20;;;24.62;43.10;101681.91;5039016;28;20572;-61
2023/06/28 07:24:56;;;;;;;4.27;2.43;;;21.60;65.60;;;24.67;42.59;101687.38;5034405;28;22243;-60
2023/06/28 07:27:23;;;;;;;4.80;2.27;;;21.60;64.70;;;24.69;42.68;101687.94;5037307;28;20309;-61
2023/06/28 07:29:50;;;;;;;4.97;2.53;;;21.70;64.10;;;24.75;42.96;101692.34;5034260;28;20630;-60
2023/06/28 07:32:17;;;;;;;5.00;2.57;;;21.70;64.40;;;24.86;42.44;101694.19;5034151;28;20274;-60
2023/06/28 07:34:44;;;;;;;7.70;2.90;;;21.70;64.10;;;24.95;42.16;101686.50;5039084;28;20226;-59
2023/06/28 07:37:11;;;;;;;5.60;2.53;;;21.80;64.60;;;25.12;42.04;101680.03;5043512;28;20217;-63
2023/06/28 07:39:38;;;;;;;6.27;2.10;;;22.00;64.90;;;25.29;42.20;101691.59;5052324;28;20640;-58
2023/06/28 07:42:07;;;;;;;5.60;2.20;;;22.00;63.80;;;25.43;41.93;101695.59;5043900;28;20197;-61
2023/06/28 07:44:34;;;;;;;4.47;2.40;;;22.20;63.90;;;25.58;41.66;101694.19;5045558;28;20246;-62
2023/06/28 07:47:02;;;;;;;5.33;2.40;;;22.30;63.80;;;25.73;40.63;101686.25;5050719;28;20576;-62
2023/06/28 07:49:29;;;;;;;4.30;2.80;;;22.50;62.80;;;25.84;40.29;101677.25;5046254;28;20327;-61
2023/06/28 07:51:56;;;;;;;2.73;2.07;;;22.60;62.20;;;25.89;40.27;101688.06;5037889;28;20280;-62
2023/06/28 07:54:23;;;;;;;2.80;2.10;;;22.70;60.90;;;25.87;39.20;101687.50;5041162;28;20186;-63
2023/06/28 07:57:00;;;;;;;3.77;2.00;;;22.70;60.00;;;25.82;40.08;101687.44;5048942;28;20243;-61
2023/06/28 07:59:32;;;;;;;4.63;2.80;;;22.70;60.20;;;25.81;40.14;101693.94;5045277;28;20194;-64
2023/06/28 08:01:59;;;;;;;6.30;3.40;;;22.70;60.20;;;25.82;39.50;101690.97;5032539;28;20175;-62
2023/06/28 08:04:26;;;;;;;5.30;2.73;;;22.80;60.40;;;25.92;39.76;101695.66;5039561;28;20194;-62
2023/06/28 08:06:53;;;;;;;6.27;2.10;;;22.80;59.80;;;26.04;39.34;101689.06;5050577;28;20201;-61
2023/06/28 08:09:20;;;;;;;4.13;2.20;;;22.80;59.40;;;26.04;39.16;101689.06;5049585;28;20236;-61
2023/06/28 08:11:48;;;;;;;3.97;1.87;;;22.90;58.50;;;26.04;38.13;101693.66;5050042;28;20220;-60
2023/06/28 08:14:14;;;;;;;2.53;1.80;;;22.90;56.60;;;25.97;37.58;101683.06;5041263;28;20206;-61
2023/06/28 08:16:45;;;;;;;4.70;2.47;;;22.90;56.60;;;25.96;37.60;101696.81;5047067;28;20297;-60
2023/06/28 08:19:13;;;;;;;3.87;1.60;;;22.90;56.70;;;26.06;37.28;101692.31;5045580;28;20229;-61
2023/06/28 08:21:40;;;;;;;4.37;1.97;;;22.90;56.70;;;26.81;36.89;101699.59;5032154;28;20238;-61
2023/06/28 08:24:07;;;;;;;3.57;1.90;;;23.10;56.90;;;27.88;35.46;101688.28;5039220;28;20223;-60
2023/06/28 08:26:36;;;;;;;3.80;2.00;;;23.40;57.20;;;28.93;33.97;101690.34;5044542;28;20304;-60
2023/06/28 08:29:03;;;;;;;7.90;5.53;;;23.90;56.60;;;30.17;31.88;101705.69;5055565;28;20194;-59
2023/06/28 08:31:30;;;;;;;4.23;2.77;;;24.50;54.40;;;31.48;30.76;101680.09;5046956;28;20546;-61
2023/06/28 08:33:58;;;;;;;3.17;1.90;;;25.20;54.20;;;32.83;28.93;101681.13;5041368;28;20256;-60
2023/06/28 08:36:27;;;;;;;4.90;2.40;;;26.00;52.20;;;34.18;26.98;101687.66;5053915;28;20221;-62
2023/06/28 08:38:54;;;;;;;4.97;1.87;;;26.90;51.60;;;34.26;25.69;101685.00;5055202;28;20666;-58
2023/06/28 08:41:24;;;;;;;4.13;1.80;;;27.60;45.80;;;33.87;25.58;101684.81;5051519;28;20302;-60
2023/06/28 08:43:52;;;;;;;6.00;3.20;;;27.80;44.10;;;34.23;25.32;101682.09;5047925;28;20613;-59
2023/06/28 08:46:21;;;;;;;5.30;2.43;;;28.10;44.20;;;34.88;25.49;101694.13;5048749;28;20659;-61
2023/06/28 08:48:51;;;;;;;3.70;2.37;;;28.40;44.10;;;34.62;25.64;101685.78;5042809;28;20537;-63
2023/06/28 08:51:20;;;;;;;4.13;2.70;;;28.70;43.30;;;35.18;25.53;101678.84;5034409;28;20656;-60
2023/06/28 08:53:49;;;;;;;3.17;2.13;;;28.90;43.40;;;36.20;24.26;101686.50;5041749;28;20276;-58
2023/06/28 08:56:16;;;;;;;2.40;1.87;;;29.30;43.10;;;37.39;22.55;101687.34;5042395;28;20253;-60
2023/06/28 08:58:47;;;;;;;11.50;3.30;;;29.80;40.80;;;37.95;21.42;101684.06;5045553;28;20221;-62
2023/06/28 09:01:15;;;;;;;2.67;2.40;;;30.40;38.80;;;38.36;21.41;101674.19;5034742;28;20658;-62
2023/06/28 09:03:43;;;;;;;4.97;3.58;;;30.90;37.80;;;38.78;20.52;101674.88;5036212;28;20206;-60
2023/06/28 09:06:11;;;;;;;5.22;2.70;;;31.30;36.40;;;38.51;20.55;101685.34;5049666;28;20246;-61
2023/06/28 09:08:41;;;;;;;3.95;3.08;;;31.50;35.90;;;37.67;21.56;101682.16;5048748;28;20651;-61
2023/06/28 09:11:08;;;;;;;3.35;2.30;;;31.50;35.60;;;36.56;21.64;101688.91;5053112;28;20272;-59
2023/06/28 09:13:37;;;;;;;4.27;2.43;;;31.20;35.30;;;35.48;23.88;101686.19;5042948;28;20214;-58
2023/06/28 09:16:09;;;;;;;4.37;2.20;;;30.80;36.20;;;34.62;24.38;101669.34;5044189;28;20208;-60
2023/06/28 09:18:36;;;;;;;3.73;2.53;;;30.20;36.50;;;33.90;24.44;101681.47;5047058;28;20273;-59
2023/06/28 09:21:04;;;;;;;6.30;2.43;;;29.70;36.80;;;33.00;25.55;101687.59;5048426;28;20198;-58
2023/06/28 09:23:34;;;;;;;3.40;1.77;;;29.10;37.60;;;32.04;26.02;101686.47;5047463;28;20213;-59
2023/06/28 09:26:03;;;;;;;6.47;2.23;;;28.40;38.10;;;31.17;26.82;101686.94;5050689;28;20268;-60
2023/06/28 09:28:33;;;;;;;3.77;2.30;;;27.80;39.10;;;30.87;27.83;101682.59;5055183;28;20716;-60
2023/06/28 09:31:04;;;;;;;4.17;1.70;;;27.30;40.50;;;31.69;27.44;101683.38;5055065;28;20579;-59
2023/06/28 09:33:33;;;;;;;4.43;2.10;;;27.10;41.70;;;33.07;26.33;101671.66;5045153;28;20659;-60
2023/06/28 09:36:04;;;;;;;3.37;1.93;;;27.30;42.10;;;33.90;24.73;101678.72;5050957;28;20214;-58
2023/06/28 09:38:33;;;;;;;2.80;1.77;;;27.70;40.30;;;33.51;23.97;101678.44;5041378;28;20232;-61
2023/06/28 09:41:04;;;;;;;4.37;1.87;;;27.90;38.60;;;33.25;24.63;101684.44;5038128;28;20230;-60
2023/06/28 09:43:33;;;;;;;1.50;1.13;;;28.00;38.80;;;33.84;23.20;101675.28;5045112;28;20767;-60
2023/06/28 09:46:12;;;;;;;3.53;1.67;;;28.20;38.20;;;34.62;23.14;101683.03;5054865;28;20701;-59
2023/06/28 09:48:43;;;;;;;2.10;1.70;;;28.60;38.00;;;34.42;22.27;101669.81;5054696;28;20681;-59
2023/06/28 09:51:14;;;;;;;2.77;1.50;;;28.70;36.50;;;34.62;22.41;101680.31;5054223;28;20319;-59
2023/06/28 09:53:52;;;;;;;1.67;1.58;;;29.10;36.10;;;35.61;21.92;101681.75;5050518;28;20271;-60
2023/06/28 09:56:31;;;;;;;2.90;1.93;;;29.40;35.90;;;36.39;20.49;101677.91;5034841;28;20317;-59
2023/06/28 09:59:01;;;;;;;2.85;1.83;;;29.80;35.10;;;37.06;20.21;101675.38;5044205;28;20198;-59
2023/06/28 10:01:29;;;;;;;2.78;2.25;;;30.10;33.70;;;37.77;20.02;101673.50;5047313;28;20208;-59
2023/06/28 10:03:58;;;;;;;2.67;2.20;;;30.50;34.70;;;37.76;20.03;101671.88;5044850;28;20288;-59
2023/06/28 10:06:30;;;;;;;3.25;2.03;;;30.80;34.30;;;38.15;20.21;101674.19;5054459;28;20264;-59
2023/06/28 10:08:59;;;;;;;2.42;1.88;;;31.10;34.60;;;38.08;19.86;101673.94;5053102;28;20284;-61
2023/06/28 10:11:34;;;;;;;1.98;1.88;;;31.30;33.60;;;37.35;20.25;101677.31;5050057;28;20232;-60
2023/06/28 10:14:05;;;;;;;4.75;2.20;;;31.30;33.70;;;35.81;21.75;101687.41;5039499;28;20197;-58
2023/06/28 10:16:33;;;;;;;3.53;2.20;;;31.00;33.70;;;34.40;22.99;101683.00;5047228;28;20225;-60